sensor_id;sensor_type;location;lat;lon;timestamp;pressure;altitude;pressure_sealevel;temperature;humidity
58757;BME280;44527;47.460;19.016;2022-08-21T00:01:46;99677.78;;;20.43;90.07
58757;BME280;44527;47.460;19.016;2022-08-21T00:04:49;99679.16;;;20.39;89.82
58757;BME280;44527;47.460;19.016;2022-08-21T00:07:58;99681.87;;;20.31;91.37
58757;BME280;44527;47.460;19.016;2022-08-21T00:11:02;99684.00;;;20.20;91.02
58757;BME280;44527;47.460;19.016;2022-08-21T00:14:08;99675.03;;;20.13;91.60
58757;BME280;44527;47.460;19.016;2022-08-21T00:17:10;99675.28;;;20.04;92.85
58757;BME280;44527;47.460;19.016;2022-08-21T00:20:14;99676.19;;;19.96;93.77
58757;BME280;44527;47.460;19.016;2022-08-21T00:23:18;99674.25;;;19.90;93.76
58757;BME280;44527;47.460;19.016;2022-08-21T00:26:20;99671.44;;;19.83;94.15
58757;BME280;44527;47.460;19.016;2022-08-21T00:29:22;99667.84;;;19.76;95.01
58757;BME280;44527;47.460;19.016;2022-08-21T00:32:26;99669.22;;;19.72;95.38
58757;BME280;44527;47.460;19.016;2022-08-21T00:35:34;99675.59;;;19.55;97.07
58757;BME280;44527;47.460;19.016;2022-08-21T00:38:36;99672.13;;;19.54;97.17
58757;BME280;44527;47.460;19.016;2022-08-21T00:41:39;99676.88;;;19.67;96.19
58757;BME280;44527;47.460;19.016;2022-08-21T00:44:47;99673.81;;;19.78;95.14
58757;BME280;44527;47.460;19.016;2022-08-21T00:47:51;99666.66;;;19.79;94.41
58757;BME280;44527;47.460;19.016;2022-08-21T00:50:58;99676.94;;;19.82;94.33
58757;BME280;44527;47.460;19.016;2022-08-21T00:54:05;99678.12;;;19.79;94.11
58757;BME280;44527;47.460;19.016;2022-08-21T00:57:21;99675.16;;;19.74;93.96
58757;BME280;44527;47.460;19.016;2022-08-21T01:00:32;99681.16;;;19.76;94.14
58757;BME280;44527;47.460;19.016;2022-08-21T01:03:35;99673.63;;;19.80;93.50
58757;BME280;44527;47.460;19.016;2022-08-21T01:06:39;99674.06;;;19.60;94.75
58757;BME280;44527;47.460;19.016;2022-08-21T01:09:41;99669.50;;;19.46;96.55
58757;BME280;44527;47.460;19.016;2022-08-21T01:12:44;99675.44;;;19.56;95.01
58757;BME280;44527;47.460;19.016;2022-08-21T01:15:49;99666.47;;;19.49;95.70
58757;BME280;44527;47.460;19.016;2022-08-21T01:18:52;99667.81;;;19.53;95.29
58757;BME280;44527;47.460;19.016;2022-08-21T01:21:54;99663.41;;;19.68;94.56
58757;BME280;44527;47.460;19.016;2022-08-21T01:24:57;99662.59;;;19.60;95.92
58757;BME280;44527;47.460;19.016;2022-08-21T01:28:04;99661.09;;;19.65;94.39
58757;BME280;44527;47.460;19.016;2022-08-21T01:31:12;99660.19;;;19.73;93.03
58757;BME280;44527;47.460;19.016;2022-08-21T01:34:19;99665.28;;;19.83;93.35
58757;BME280;44527;47.460;19.016;2022-08-21T01:37:21;99661.34;;;19.79;93.98
58757;BME280;44527;47.460;19.016;2022-08-21T01:40:24;99659.13;;;19.82;92.72
58757;BME280;44527;47.460;19.016;2022-08-21T01:43:27;99663.63;;;19.82;93.42
58757;BME280;44527;47.460;19.016;2022-08-21T01:46:40;99666.59;;;19.87;93.43
58757;BME280;44527;47.460;19.016;2022-08-21T01:49:43;99666.72;;;19.93;91.08
58757;BME280;44527;47.460;19.016;2022-08-21T01:52:46;99667.06;;;19.90;92.62
58757;BME280;44527;47.460;19.016;2022-08-21T01:55:49;99671.75;;;19.88;92.83
58757;BME280;44527;47.460;19.016;2022-08-21T01:58:51;99666.72;;;19.93;91.82
58757;BME280;44527;47.460;19.016;2022-08-21T02:01:54;99660.56;;;19.93;90.96
58757;BME280;44527;47.460;19.016;2022-08-21T02:04:56;99663.34;;;19.77;94.04
58757;BME280;44527;47.460;19.016;2022-08-21T02:07:59;99670.50;;;19.76;93.42
58757;BME280;44527;47.460;19.016;2022-08-21T02:11:01;99667.69;;;19.78;92.83
58757;BME280;44527;47.460;19.016;2022-08-21T02:14:03;99669.38;;;19.70;93.46
58757;BME280;44527;47.460;19.016;2022-08-21T02:17:06;99668.22;;;19.65;94.28
58757;BME280;44527;47.460;19.016;2022-08-21T02:20:16;99663.94;;;19.56;95.42
58757;BME280;44527;47.460;19.016;2022-08-21T02:23:18;99655.81;;;19.49;95.66
58757;BME280;44527;47.460;19.016;2022-08-21T02:26:28;99658.13;;;19.52;95.35
58757;BME280;44527;47.460;19.016;2022-08-21T02:29:30;99657.19;;;19.45;95.43
58757;BME280;44527;47.460;19.016;2022-08-21T02:32:32;99655.00;;;19.48;94.93
58757;BME280;44527;47.460;19.016;2022-08-21T02:35:36;99663.47;;;19.52;94.70
58757;BME280;44527;47.460;19.016;2022-08-21T02:38:41;99658.37;;;19.42;95.49
58757;BME280;44527;47.460;19.016;2022-08-21T02:41:45;99656.53;;;19.43;95.53
58757;BME280;44527;47.460;19.016;2022-08-21T02:44:47;99649.38;;;19.43;95.67
58757;BME280;44527;47.460;19.016;2022-08-21T02:47:55;99649.91;;;19.39;95.91
58757;BME280;44527;47.460;19.016;2022-08-21T02:51:00;99635.44;;;19.41;95.32
58757;BME280;44527;47.460;19.016;2022-08-21T02:54:03;99630.13;;;19.41;95.46
58757;BME280;44527;47.460;19.016;2022-08-21T02:57:05;99635.59;;;19.40;95.58
58757;BME280;44527;47.460;19.016;2022-08-21T03:00:08;99635.78;;;19.38;95.72
58757;BME280;44527;47.460;19.016;2022-08-21T03:03:14;99653.09;;;19.34;96.37
58757;BME280;44527;47.460;19.016;2022-08-21T03:06:18;99648.75;;;19.41;96.19
58757;BME280;44527;47.460;19.016;2022-08-21T03:09:21;99652.22;;;19.42;95.74
58757;BME280;44527;47.460;19.016;2022-08-21T03:12:24;99648.53;;;19.43;95.35
58757;BME280;44527;47.460;19.016;2022-08-21T03:15:31;99646.34;;;19.46;95.17
58757;BME280;44527;47.460;19.016;2022-08-21T03:18:34;99646.94;;;19.34;95.00
58757;BME280;44527;47.460;19.016;2022-08-21T03:21:38;99644.34;;;19.25;97.20
58757;BME280;44527;47.460;19.016;2022-08-21T03:24:41;99644.59;;;19.39;96.63
58757;BME280;44527;47.460;19.016;2022-08-21T03:27:45;99644.28;;;19.34;96.50
58757;BME280;44527;47.460;19.016;2022-08-21T03:30:51;99653.25;;;19.41;95.81
58757;BME280;44527;47.460;19.016;2022-08-21T03:33:54;99649.53;;;19.50;95.31
58757;BME280;44527;47.460;19.016;2022-08-21T03:36:57;99652.34;;;19.48;95.62
58757;BME280;44527;47.460;19.016;2022-08-21T03:40:00;99657.53;;;19.42;95.31
58757;BME280;44527;47.460;19.016;2022-08-21T03:43:03;99663.38;;;19.37;95.20
58757;BME280;44527;47.460;19.016;2022-08-21T03:46:06;99658.72;;;19.39;95.73
58757;BME280;44527;47.460;19.016;2022-08-21T03:49:09;99647.59;;;19.36;96.53
58757;BME280;44527;47.460;19.016;2022-08-21T03:52:11;99651.56;;;19.40;96.01
58757;BME280;44527;47.460;19.016;2022-08-21T03:55:13;99663.88;;;19.41;95.71
58757;BME280;44527;47.460;19.016;2022-08-21T03:58:18;99654.41;;;19.38;96.92
58757;BME280;44527;47.460;19.016;2022-08-21T04:01:21;99653.59;;;19.38;95.25
58757;BME280;44527;47.460;19.016;2022-08-21T04:04:23;99653.53;;;19.46;94.58
58757;BME280;44527;47.460;19.016;2022-08-21T04:07:26;99662.69;;;19.43;95.06
58757;BME280;44527;47.460;19.016;2022-08-21T04:10:31;99664.47;;;19.51;94.02
58757;BME280;44527;47.460;19.016;2022-08-21T04:13:34;99667.97;;;19.51;94.96
58757;BME280;44527;47.460;19.016;2022-08-21T04:16:45;99666.75;;;19.62;93.58
58757;BME280;44527;47.460;19.016;2022-08-21T04:19:48;99670.22;;;19.63;92.74
58757;BME280;44527;47.460;19.016;2022-08-21T04:22:56;99675.03;;;19.67;93.33
58757;BME280;44527;47.460;19.016;2022-08-21T04:25:58;99673.34;;;19.74;93.05
58757;BME280;44527;47.460;19.016;2022-08-21T04:29:02;99676.84;;;19.75;92.25
58757;BME280;44527;47.460;19.016;2022-08-21T04:32:05;99681.47;;;19.81;92.72
58757;BME280;44527;47.460;19.016;2022-08-21T04:35:10;99679.50;;;19.75;93.29
58757;BME280;44527;47.460;19.016;2022-08-21T04:38:13;99680.28;;;19.84;92.34
58757;BME280;44527;47.460;19.016;2022-08-21T04:41:15;99684.00;;;19.97;92.31
58757;BME280;44527;47.460;19.016;2022-08-21T04:44:28;99685.47;;;20.00;92.06
58757;BME280;44527;47.460;19.016;2022-08-21T04:47:31;99682.97;;;19.98;92.58
58757;BME280;44527;47.460;19.016;2022-08-21T04:51:02;99689.25;;;20.06;92.17
58757;BME280;44527;47.460;19.016;2022-08-21T04:54:10;99689.72;;;20.09;92.19
58757;BME280;44527;47.460;19.016;2022-08-21T04:57:15;99686.16;;;20.17;91.43
58757;BME280;44527;47.460;19.016;2022-08-21T05:00:18;99695.87;;;20.10;89.44
58757;BME280;44527;47.460;19.016;2022-08-21T05:03:21;99693.94;;;20.04;92.16
58757;BME280;44527;47.460;19.016;2022-08-21T05:06:25;99694.50;;;20.14;89.90
58757;BME280;44527;47.460;19.016;2022-08-21T05:09:28;99697.59;;;20.26;90.40
58757;BME280;44527;47.460;19.016;2022-08-21T05:12:32;99685.03;;;20.34;89.91
58757;BME280;44527;47.460;19.016;2022-08-21T05:15:37;99691.62;;;20.38;88.33
58757;BME280;44527;47.460;19.016;2022-08-21T05:18:39;99699.62;;;20.38;87.98
58757;BME280;44527;47.460;19.016;2022-08-21T05:21:44;99697.47;;;20.42;88.00
58757;BME280;44527;47.460;19.016;2022-08-21T05:24:47;99687.38;;;20.52;87.39
58757;BME280;44527;47.460;19.016;2022-08-21T05:27:50;99698.50;;;20.56;86.97
58757;BME280;44527;47.460;19.016;2022-08-21T05:30:53;99693.19;;;20.56;86.29
58757;BME280;44527;47.460;19.016;2022-08-21T05:33:56;99700.09;;;20.65;86.92
58757;BME280;44527;47.460;19.016;2022-08-21T05:36:59;99693.47;;;20.61;85.53
58757;BME280;44527;47.460;19.016;2022-08-21T05:40:08;99688.97;;;20.76;84.40
58757;BME280;44527;47.460;19.016;2022-08-21T05:43:24;99692.19;;;20.72;86.01
58757;BME280;44527;47.460;19.016;2022-08-21T05:46:29;99685.00;;;20.87;84.10
58757;BME280;44527;47.460;19.016;2022-08-21T05:49:32;99689.53;;;21.01;83.89
58757;BME280;44527;47.460;19.016;2022-08-21T05:52:34;99688.78;;;21.07;82.85
58757;BME280;44527;47.460;19.016;2022-08-21T05:55:38;99691.72;;;21.12;82.43
58757;BME280;44527;47.460;19.016;2022-08-21T05:58:46;99682.13;;;21.33;82.17
58757;BME280;44527;47.460;19.016;2022-08-21T06:01:50;99687.22;;;21.43;81.39
58757;BME280;44527;47.460;19.016;2022-08-21T06:04:56;99684.41;;;21.51;79.01
58757;BME280;44527;47.460;19.016;2022-08-21T06:07:58;99686.56;;;21.41;81.36
58757;BME280;44527;47.460;19.016;2022-08-21T06:11:03;99686.16;;;21.59;79.78
58757;BME280;44527;47.460;19.016;2022-08-21T06:14:06;99691.31;;;21.82;78.91
58757;BME280;44527;47.460;19.016;2022-08-21T06:17:11;99693.88;;;21.90;78.55
58757;BME280;44527;47.460;19.016;2022-08-21T06:20:14;99691.75;;;22.07;76.19
58757;BME280;44527;47.460;19.016;2022-08-21T06:23:16;99696.09;;;22.08;76.70
58757;BME280;44527;47.460;19.016;2022-08-21T06:26:18;99695.66;;;22.04;76.99
58757;BME280;44527;47.460;19.016;2022-08-21T06:29:23;99696.91;;;22.08;75.76
58757;BME280;44527;47.460;19.016;2022-08-21T06:32:25;99701.13;;;22.39;75.03
58757;BME280;44527;47.460;19.016;2022-08-21T06:35:28;99704.22;;;22.42;75.14
58757;BME280;44527;47.460;19.016;2022-08-21T06:38:31;99698.41;;;22.60;73.69
58757;BME280;44527;47.460;19.016;2022-08-21T06:41:37;99708.31;;;22.66;73.22
58757;BME280;44527;47.460;19.016;2022-08-21T06:44:41;99712.97;;;22.58;73.07
58757;BME280;44527;47.460;19.016;2022-08-21T06:47:44;99716.16;;;22.96;72.26
58757;BME280;44527;47.460;19.016;2022-08-21T06:50:47;99717.25;;;23.08;71.20
58757;BME280;44527;47.460;19.016;2022-08-21T06:53:50;99716.31;;;23.29;70.33
58757;BME280;44527;47.460;19.016;2022-08-21T06:56:52;99714.44;;;23.78;68.58
58757;BME280;44527;47.460;19.016;2022-08-21T06:59:55;99717.59;;;23.95;66.70
58757;BME280;44527;47.460;19.016;2022-08-21T07:02:57;99719.87;;;24.11;66.50
58757;BME280;44527;47.460;19.016;2022-08-21T07:06:00;99720.09;;;24.16;65.65
58757;BME280;44527;47.460;19.016;2022-08-21T07:09:03;99722.78;;;24.23;65.73
58757;BME280;44527;47.460;19.016;2022-08-21T07:12:06;99723.59;;;24.23;65.83
58757;BME280;44527;47.460;19.016;2022-08-21T07:15:09;99712.91;;;24.50;65.28
58757;BME280;44527;47.460;19.016;2022-08-21T07:18:12;99722.00;;;24.56;64.59
58757;BME280;44527;47.460;19.016;2022-08-21T07:21:15;99721.97;;;24.69;63.49
58757;BME280;44527;47.460;19.016;2022-08-21T07:24:18;99720.50;;;24.73;63.16
58757;BME280;44527;47.460;19.016;2022-08-21T07:27:20;99711.22;;;24.82;63.53
58757;BME280;44527;47.460;19.016;2022-08-21T07:30:23;99713.47;;;24.98;63.60
58757;BME280;44527;47.460;19.016;2022-08-21T07:33:28;99708.69;;;25.14;62.31
58757;BME280;44527;47.460;19.016;2022-08-21T07:36:31;99722.94;;;25.14;61.35
58757;BME280;44527;47.460;19.016;2022-08-21T07:39:36;99705.94;;;25.27;61.83
58757;BME280;44527;47.460;19.016;2022-08-21T07:42:43;99707.03;;;25.19;62.37
58757;BME280;44527;47.460;19.016;2022-08-21T07:45:45;99713.44;;;25.63;61.47
58757;BME280;44527;47.460;19.016;2022-08-21T07:48:48;99703.84;;;25.74;59.38
58757;BME280;44527;47.460;19.016;2022-08-21T07:51:50;99706.16;;;25.71;59.65
58757;BME280;44527;47.460;19.016;2022-08-21T07:54:53;99704.53;;;26.01;59.46
58757;BME280;44527;47.460;19.016;2022-08-21T07:57:55;99699.78;;;25.65;59.72
58757;BME280;44527;47.460;19.016;2022-08-21T08:00:57;99705.47;;;25.88;59.44
58757;BME280;44527;47.460;19.016;2022-08-21T08:04:00;99702.53;;;25.97;59.83
58757;BME280;44527;47.460;19.016;2022-08-21T08:07:02;99695.84;;;26.06;58.10
58757;BME280;44527;47.460;19.016;2022-08-21T08:10:06;99702.13;;;26.50;58.76
58757;BME280;44527;47.460;19.016;2022-08-21T08:13:09;99700.25;;;26.50;56.98
58757;BME280;44527;47.460;19.016;2022-08-21T08:16:12;99696.16;;;26.41;58.08
58757;BME280;44527;47.460;19.016;2022-08-21T08:19:15;99696.13;;;26.48;56.76
58757;BME280;44527;47.460;19.016;2022-08-21T08:22:21;99683.19;;;26.81;56.58
58757;BME280;44527;47.460;19.016;2022-08-21T08:25:25;99688.13;;;26.85;56.13
58757;BME280;44527;47.460;19.016;2022-08-21T08:28:29;99678.47;;;26.95;55.34
58757;BME280;44527;47.460;19.016;2022-08-21T08:31:32;99678.75;;;27.05;55.19
58757;BME280;44527;47.460;19.016;2022-08-21T08:34:36;99682.19;;;27.49;53.16
58757;BME280;44527;47.460;19.016;2022-08-21T08:37:39;99678.59;;;27.98;53.61
58757;BME280;44527;47.460;19.016;2022-08-21T08:40:47;99681.00;;;28.17;51.64
58757;BME280;44527;47.460;19.016;2022-08-21T08:43:57;99669.72;;;28.09;51.68
58757;BME280;44527;47.460;19.016;2022-08-21T08:47:01;99676.53;;;28.11;53.50
58757;BME280;44527;47.460;19.016;2022-08-21T08:50:17;99676.66;;;28.05;51.75
58757;BME280;44527;47.460;19.016;2022-08-21T08:53:37;99679.66;;;27.97;51.87
58757;BME280;44527;47.460;19.016;2022-08-21T08:56:46;99673.50;;;28.08;53.25
58757;BME280;44527;47.460;19.016;2022-08-21T08:59:52;99676.72;;;28.52;52.10
58757;BME280;44527;47.460;19.016;2022-08-21T09:02:57;99669.84;;;28.14;51.78
58757;BME280;44527;47.460;19.016;2022-08-21T09:06:09;99671.25;;;28.05;52.58
58757;BME280;44527;47.460;19.016;2022-08-21T09:09:38;99680.19;;;28.17;51.93
58757;BME280;44527;47.460;19.016;2022-08-21T09:12:51;99682.53;;;28.37;51.03
58757;BME280;44527;47.460;19.016;2022-08-21T09:19:56;99667.78;;;28.86;49.17
58757;BME280;44527;47.460;19.016;2022-08-21T09:27:02;99672.09;;;28.99;49.32
58757;BME280;44527;47.460;19.016;2022-08-21T09:30:09;99669.62;;;29.38;49.68
58757;BME280;44527;47.460;19.016;2022-08-21T09:33:12;99674.25;;;29.26;48.29
58757;BME280;44527;47.460;19.016;2022-08-21T09:36:41;99663.94;;;29.23;50.61
58757;BME280;44527;47.460;19.016;2022-08-21T09:39:48;99658.72;;;28.81;50.15
58757;BME280;44527;47.460;19.016;2022-08-21T09:42:58;99662.47;;;28.80;51.38
58757;BME280;44527;47.460;19.016;2022-08-21T09:46:23;99670.22;;;29.12;49.16
58757;BME280;44527;47.460;19.016;2022-08-21T09:49:31;99657.81;;;28.63;49.34
58757;BME280;44527;47.460;19.016;2022-08-21T09:52:34;99658.28;;;28.60;50.07
58757;BME280;44527;47.460;19.016;2022-08-21T09:55:49;99667.41;;;28.24;51.87
58757;BME280;44527;47.460;19.016;2022-08-21T09:59:19;99675.28;;;28.49;50.90
58757;BME280;44527;47.460;19.016;2022-08-21T10:02:27;99669.88;;;28.26;52.65
58757;BME280;44527;47.460;19.016;2022-08-21T10:05:29;99670.16;;;27.94;52.33
58757;BME280;44527;47.460;19.016;2022-08-21T10:08:33;99665.84;;;28.05;52.56
58757;BME280;44527;47.460;19.016;2022-08-21T10:11:36;99670.38;;;27.81;52.79
58757;BME280;44527;47.460;19.016;2022-08-21T10:15:08;99662.12;;;27.76;52.38
58757;BME280;44527;47.460;19.016;2022-08-21T10:22:11;99667.28;;;27.77;52.32
58757;BME280;44527;47.460;19.016;2022-08-21T10:25:23;99668.66;;;27.98;52.73
58757;BME280;44527;47.460;19.016;2022-08-21T10:32:02;99664.09;;;28.22;51.36
58757;BME280;44527;47.460;19.016;2022-08-21T10:35:33;99668.38;;;28.42;50.89
58757;BME280;44527;47.460;19.016;2022-08-21T10:42:21;99667.41;;;28.36;51.77
58757;BME280;44527;47.460;19.016;2022-08-21T10:45:53;99670.19;;;28.06;51.03
58757;BME280;44527;47.460;19.016;2022-08-21T10:49:17;99663.47;;;27.85;52.28
58757;BME280;44527;47.460;19.016;2022-08-21T10:56:23;99657.50;;;27.83;53.60
58757;BME280;44527;47.460;19.016;2022-08-21T10:59:32;99655.88;;;27.63;53.79
58757;BME280;44527;47.460;19.016;2022-08-21T11:02:55;99655.50;;;27.30;54.65
58757;BME280;44527;47.460;19.016;2022-08-21T11:06:09;99659.53;;;27.39;54.83
58757;BME280;44527;47.460;19.016;2022-08-21T11:09:15;99657.87;;;27.68;54.04
58757;BME280;44527;47.460;19.016;2022-08-21T11:15:37;99650.97;;;27.72;53.83
58757;BME280;44527;47.460;19.016;2022-08-21T11:18:49;99647.28;;;27.85;54.10
58757;BME280;44527;47.460;19.016;2022-08-21T11:25:33;99635.16;;;27.34;54.70
58757;BME280;44527;47.460;19.016;2022-08-21T11:28:51;99643.25;;;27.34;54.86
58757;BME280;44527;47.460;19.016;2022-08-21T11:32:32;99641.13;;;27.36;54.09
58757;BME280;44527;47.460;19.016;2022-08-21T11:35:43;99637.25;;;27.13;55.45
58757;BME280;44527;47.460;19.016;2022-08-21T11:39:16;99641.66;;;27.26;55.81
58757;BME280;44527;47.460;19.016;2022-08-21T11:52:44;99627.50;;;27.61;54.43
58757;BME280;44527;47.460;19.016;2022-08-21T11:55:58;99630.19;;;27.49;54.44
58757;BME280;44527;47.460;19.016;2022-08-21T11:59:07;99620.37;;;27.36;54.09
58757;BME280;44527;47.460;19.016;2022-08-21T12:02:18;99620.22;;;27.19;54.84
58757;BME280;44527;47.460;19.016;2022-08-21T12:05:31;99618.84;;;27.29;54.59
58757;BME280;44527;47.460;19.016;2022-08-21T12:08:36;99619.78;;;26.86;55.98
58757;BME280;44527;47.460;19.016;2022-08-21T12:11:48;99619.06;;;26.53;57.40
58757;BME280;44527;47.460;19.016;2022-08-21T12:18:29;99614.09;;;26.32;58.00
58757;BME280;44527;47.460;19.016;2022-08-21T12:21:33;99620.41;;;26.19;57.98
58757;BME280;44527;47.460;19.016;2022-08-21T12:24:49;99615.22;;;26.24;57.98
58757;BME280;44527;47.460;19.016;2022-08-21T12:27:54;99611.13;;;26.40;59.50
58757;BME280;44527;47.460;19.016;2022-08-21T12:31:17;99607.88;;;26.56;59.51
58757;BME280;44527;47.460;19.016;2022-08-21T12:34:23;99607.81;;;26.81;57.21
58757;BME280;44527;47.460;19.016;2022-08-21T12:37:50;99607.06;;;26.74;57.57
58757;BME280;44527;47.460;19.016;2022-08-21T12:41:02;99598.97;;;26.93;57.83
58757;BME280;44527;47.460;19.016;2022-08-21T12:44:13;99601.00;;;26.79;58.16
58757;BME280;44527;47.460;19.016;2022-08-21T12:47:36;99596.44;;;26.61;57.56
58757;BME280;44527;47.460;19.016;2022-08-21T12:50:52;99593.06;;;26.66;57.76
58757;BME280;44527;47.460;19.016;2022-08-21T12:53:58;99597.06;;;25.95;58.61
58757;BME280;44527;47.460;19.016;2022-08-21T12:57:03;99594.59;;;26.18;57.78
58757;BME280;44527;47.460;19.016;2022-08-21T13:00:09;99603.16;;;25.77;60.21
58757;BME280;44527;47.460;19.016;2022-08-21T13:03:14;99594.34;;;25.70;60.57
58757;BME280;44527;47.460;19.016;2022-08-21T13:06:18;99589.16;;;25.68;60.98
58757;BME280;44527;47.460;19.016;2022-08-21T13:09:30;99585.31;;;25.57;60.80
58757;BME280;44527;47.460;19.016;2022-08-21T13:12:33;99587.25;;;25.50;61.23
58757;BME280;44527;47.460;19.016;2022-08-21T13:15:39;99576.38;;;25.38;61.47
58757;BME280;44527;47.460;19.016;2022-08-21T13:18:55;99576.03;;;25.21;62.42
58757;BME280;44527;47.460;19.016;2022-08-21T13:21:58;99573.59;;;25.07;63.43
58757;BME280;44527;47.460;19.016;2022-08-21T13:25:02;99579.66;;;24.95;68.64
58757;BME280;44527;47.460;19.016;2022-08-21T13:28:12;99583.03;;;24.77;68.15
58757;BME280;44527;47.460;19.016;2022-08-21T13:31:22;99582.94;;;24.46;74.81
58757;BME280;44527;47.460;19.016;2022-08-21T13:34:31;99592.00;;;24.31;79.76
58757;BME280;44527;47.460;19.016;2022-08-21T13:37:35;99594.31;;;23.88;84.67
58757;BME280;44527;47.460;19.016;2022-08-21T13:40:49;99605.63;;;23.83;84.59
58757;BME280;44527;47.460;19.016;2022-08-21T13:44:05;99601.47;;;23.68;86.73
58757;BME280;44527;47.460;19.016;2022-08-21T13:47:10;99606.38;;;23.51;90.22
58757;BME280;44527;47.460;19.016;2022-08-21T13:50:15;99605.13;;;23.40;90.82
58757;BME280;44527;47.460;19.016;2022-08-21T13:53:34;99603.81;;;23.09;90.75
58757;BME280;44527;47.460;19.016;2022-08-21T13:56:45;99603.78;;;23.03;93.61
58757;BME280;44527;47.460;19.016;2022-08-21T13:59:48;99601.22;;;22.88;96.41
58757;BME280;44527;47.460;19.016;2022-08-21T14:03:00;99597.16;;;22.57;97.11
58757;BME280;44527;47.460;19.016;2022-08-21T14:06:18;99596.87;;;22.45;96.62
58757;BME280;44527;47.460;19.016;2022-08-21T14:09:41;99602.59;;;22.36;98.96
58757;BME280;44527;47.460;19.016;2022-08-21T14:13:02;99600.22;;;22.19;96.12
58757;BME280;44527;47.460;19.016;2022-08-21T14:16:17;99591.69;;;22.09;100.00
58757;BME280;44527;47.460;19.016;2022-08-21T14:19:23;99598.19;;;22.00;100.00
58757;BME280;44527;47.460;19.016;2022-08-21T14:22:36;99596.34;;;21.79;100.00
58757;BME280;44527;47.460;19.016;2022-08-21T14:25:42;99597.66;;;21.83;100.00
58757;BME280;44527;47.460;19.016;2022-08-21T14:28:45;99590.78;;;21.74;100.00
58757;BME280;44527;47.460;19.016;2022-08-21T14:31:56;99599.75;;;21.66;100.00
58757;BME280;44527;47.460;19.016;2022-08-21T14:34:59;99595.53;;;21.57;100.00
58757;BME280;44527;47.460;19.016;2022-08-21T14:38:01;99601.66;;;21.51;100.00
58757;BME280;44527;47.460;19.016;2022-08-21T14:41:17;99596.19;;;21.38;100.00
58757;BME280;44527;47.460;19.016;2022-08-21T14:44:20;99600.50;;;21.39;100.00
58757;BME280;44527;47.460;19.016;2022-08-21T14:47:23;99596.63;;;21.26;100.00
58757;BME280;44527;47.460;19.016;2022-08-21T14:50:25;99596.84;;;21.25;100.00
58757;BME280;44527;47.460;19.016;2022-08-21T14:53:29;99595.63;;;21.27;100.00
58757;BME280;44527;47.460;19.016;2022-08-21T14:56:32;99596.84;;;21.25;100.00
58757;BME280;44527;47.460;19.016;2022-08-21T14:59:35;99597.59;;;21.19;100.00
58757;BME280;44527;47.460;19.016;2022-08-21T15:02:38;99586.34;;;21.23;100.00
58757;BME280;44527;47.460;19.016;2022-08-21T15:05:41;99584.59;;;21.30;100.00
58757;BME280;44527;47.460;19.016;2022-08-21T15:08:43;99584.59;;;21.30;100.00
58757;BME280;44527;47.460;19.016;2022-08-21T15:11:46;99585.41;;;21.31;100.00
58757;BME280;44527;47.460;19.016;2022-08-21T15:14:48;99585.19;;;21.32;100.00
58757;BME280;44527;47.460;19.016;2022-08-21T15:17:50;99578.41;;;21.30;100.00
58757;BME280;44527;47.460;19.016;2022-08-21T15:20:53;99582.09;;;21.29;100.00
58757;BME280;44527;47.460;19.016;2022-08-21T15:23:55;99575.56;;;21.31;100.00
58757;BME280;44527;47.460;19.016;2022-08-21T15:27:00;99581.06;;;21.30;100.00
58757;BME280;44527;47.460;19.016;2022-08-21T15:30:04;99581.91;;;21.30;100.00
58757;BME280;44527;47.460;19.016;2022-08-21T15:33:07;99584.84;;;21.36;100.00
58757;BME280;44527;47.460;19.016;2022-08-21T15:36:12;99583.88;;;21.37;100.00
58757;BME280;44527;47.460;19.016;2022-08-21T15:39:15;99584.00;;;21.35;100.00
58757;BME280;44527;47.460;19.016;2022-08-21T15:42:17;99575.19;;;21.34;100.00
58757;BME280;44527;47.460;19.016;2022-08-21T15:45:20;99579.97;;;21.39;100.00
58757;BME280;44527;47.460;19.016;2022-08-21T15:48:22;99575.66;;;21.38;100.00
58757;BME280;44527;47.460;19.016;2022-08-21T15:51:25;99585.03;;;21.34;100.00
58757;BME280;44527;47.460;19.016;2022-08-21T15:54:27;99581.34;;;21.35;100.00
58757;BME280;44527;47.460;19.016;2022-08-21T15:57:29;99577.78;;;21.28;100.00
58757;BME280;44527;47.460;19.016;2022-08-21T16:00:35;99579.34;;;21.22;100.00
58757;BME280;44527;47.460;19.016;2022-08-21T16:03:38;99585.44;;;21.16;100.00
58757;BME280;44527;47.460;19.016;2022-08-21T16:06:40;99579.84;;;21.11;100.00
58757;BME280;44527;47.460;19.016;2022-08-21T16:09:57;99583.19;;;20.98;100.00
58757;BME280;44527;47.460;19.016;2022-08-21T16:13:03;99586.44;;;20.94;100.00
58757;BME280;44527;47.460;19.016;2022-08-21T16:16:06;99588.25;;;20.93;100.00
58757;BME280;44527;47.460;19.016;2022-08-21T16:19:10;99580.91;;;20.95;100.00
58757;BME280;44527;47.460;19.016;2022-08-21T16:22:12;99589.28;;;20.92;100.00
58757;BME280;44527;47.460;19.016;2022-08-21T16:25:15;99591.03;;;20.85;100.00
58757;BME280;44527;47.460;19.016;2022-08-21T16:28:19;99589.50;;;20.76;100.00
58757;BME280;44527;47.460;19.016;2022-08-21T16:31:23;99579.63;;;20.76;100.00
58757;BME280;44527;47.460;19.016;2022-08-21T16:34:26;99585.25;;;20.67;100.00
58757;BME280;44527;47.460;19.016;2022-08-21T16:37:29;99574.69;;;20.73;100.00
58757;BME280;44527;47.460;19.016;2022-08-21T16:40:32;99582.94;;;20.78;100.00
58757;BME280;44527;47.460;19.016;2022-08-21T16:43:34;99577.34;;;20.73;100.00
58757;BME280;44527;47.460;19.016;2022-08-21T16:46:38;99579.56;;;20.70;100.00
58757;BME280;44527;47.460;19.016;2022-08-21T16:49:41;99580.31;;;20.63;100.00
58757;BME280;44527;47.460;19.016;2022-08-21T16:52:45;99572.56;;;20.69;100.00
58757;BME280;44527;47.460;19.016;2022-08-21T16:55:47;99574.22;;;20.70;100.00